Time;durP1;ratioP1;P1;durP2;ratioP2;P2;SDS_P1;SDS_P2;PMS_P1;PMS_P2;Temp;Humidity;BMP_temperature;BMP_pressure;BME280_temperature;BME280_humidity;BME280_pressure;Samples;Min_cycle;Max_cycle;Signal;HPM_P1;HPM_P2
2023/07/08 04:01:25;;;;;;;;;;;21.60;65.10;;;;;;7020444;23;1546;-75
2023/07/08 04:04:27;;;;;;;;;;;21.70;65.60;;;;;;6177502;28;1911;-76
2023/07/08 04:07:29;;;;;;;;;;;21.70;65.80;;;;;;6177783;28;1030;-75
2023/07/08 04:10:30;;;;;;;;;;;21.60;66.40;;;;;;6189166;28;1005;-75
2023/07/08 04:13:32;;;;;;;;;;;21.30;67.30;;;;;;6192584;28;1596;-75
2023/07/08 04:16:45;;;;;;;;;;;21.50;66.90;;;;;;6201572;28;1100;-74
2023/07/08 04:19:47;;;;;;;;;;;21.50;67.10;;;;;;6201339;28;1287;-75
2023/07/08 04:22:48;;;;;;;;;;;21.60;67.40;;;;;;6198685;28;1464;-75
2023/07/08 04:25:52;;;;;;;;;;;21.60;68.10;;;;;;6200963;28;1979;-75
2023/07/08 04:28:53;;;;;;;;;;;21.50;67.10;;;;;;6201301;28;1038;-75
2023/07/08 04:31:56;;;;;;;;;;;21.50;68.00;;;;;;6198660;28;1430;-73
2023/07/08 04:34:58;;;;;;;;;;;21.50;65.30;;;;;;6190186;28;1484;-75
2023/07/08 04:38:00;;;;;;;;;;;21.50;66.80;;;;;;6179662;28;1412;-75
2023/07/08 04:41:02;;;;;;;;;;;21.50;68.20;;;;;;6201221;28;1280;-75
2023/07/08 04:44:04;;;;;;;;;;;21.00;67.90;;;;;;6198951;28;1402;-75
2023/07/08 04:47:08;;;;;;;;;;;21.20;66.20;;;;;;6190611;28;2041;-75
2023/07/08 04:50:11;;;;;;;;;;;21.40;66.70;;;;;;6176790;28;1058;-76
2023/07/08 04:53:13;;;;;;;;;;;21.50;67.10;;;;;;6175661;28;1411;-75
2023/07/08 04:56:15;;;;;;;;;;;21.30;68.10;;;;;;6176911;28;1140;-75
2023/07/08 04:59:18;;;;;;;;;;;21.40;68.40;;;;;;6175868;28;1494;-75
2023/07/08 05:02:21;;;;;;;;;;;21.50;66.60;;;;;;6170073;28;2552;-76
2023/07/08 05:05:22;;;;;;;;;;;21.50;67.30;;;;;;6175919;28;2982;-74
2023/07/08 05:08:24;;;;;;;;;;;21.40;68.30;;;;;;6193913;28;1979;-73
2023/07/08 05:11:26;;;;;;;;;;;21.40;69.50;;;;;;6176579;28;1209;-74
2023/07/08 05:14:28;;;;;;;;;;;21.30;70.90;;;;;;6178242;28;1511;-74
2023/07/08 05:17:31;;;;;;;;;;;21.30;70.50;;;;;;6198401;28;1538;-75
2023/07/08 05:20:34;;;;;;;;;;;21.50;69.50;;;;;;6178062;28;2401;-75
2023/07/08 05:23:36;;;;;;;;;;;21.50;70.20;;;;;;6176679;28;1478;-75
2023/07/08 05:26:38;;;;;;;;;;;21.40;72.40;;;;;;6194350;28;1910;-75
2023/07/08 05:29:39;;;;;;;;;;;21.40;73.30;;;;;;6201642;28;1034;-75
2023/07/08 05:32:43;;;;;;;;;;;21.50;72.40;;;;;;6184208;28;1298;-75
2023/07/08 05:35:46;;;;;;;;;;;21.50;72.10;;;;;;6185451;28;1561;-75
2023/07/08 05:38:47;;;;;;;;;;;21.60;72.50;;;;;;6201421;28;1447;-75
2023/07/08 05:41:49;;;;;;;;;;;21.60;72.10;;;;;;6203120;28;1380;-76
2023/07/08 05:44:52;;;;;;;;;;;21.70;70.30;;;;;;6201469;28;1368;-73
2023/07/08 05:47:55;;;;;;;;;;;21.80;70.10;;;;;;6189225;28;2654;-75
2023/07/08 05:50:57;;;;;;;;;;;21.80;70.50;;;;;;6195878;28;2844;-75
2023/07/08 05:53:59;;;;;;;;;;;21.80;70.70;;;;;;6185231;28;2119;-74
2023/07/08 05:57:00;;;;;;;;;;;21.90;70.30;;;;;;6200701;28;1397;-75
2023/07/08 06:00:02;;;;;;;;;;;21.90;70.60;;;;;;6202841;28;1393;-75
2023/07/08 06:03:05;;;;;;;;;;;21.90;70.30;;;;;;6200415;28;1400;-74
2023/07/08 06:06:07;;;;;;;;;;;21.80;70.20;;;;;;6205048;28;1982;-74
2023/07/08 06:09:08;;;;;;;;;;;21.90;70.30;;;;;;6205145;28;1150;-75
2023/07/08 06:12:11;;;;;;;;;;;21.90;69.90;;;;;;6205039;28;1153;-73
2023/07/08 06:15:12;;;;;;;;;;;22.00;70.50;;;;;;6180549;28;1562;-70
2023/07/08 06:18:15;;;;;;;;;;;22.00;70.60;;;;;;6195217;28;2775;-72
2023/07/08 06:21:17;;;;;;;;;;;22.00;70.90;;;;;;6192861;28;2513;-69
2023/07/08 06:24:19;;;;;;;;;;;22.10;70.90;;;;;;6188868;28;2474;-71
2023/07/08 06:27:21;;;;;;;;;;;22.10;70.70;;;;;;6185626;28;4360;-71
2023/07/08 06:30:22;;;;;;;;;;;22.20;70.80;;;;;;6179775;28;3598;-71
2023/07/08 06:33:26;;;;;;;;;;;22.20;70.50;;;;;;6179207;28;2678;-71
2023/07/08 06:36:27;;;;;;;;;;;22.30;70.40;;;;;;6186946;28;1580;-71
2023/07/08 06:39:29;;;;;;;;;;;22.30;70.30;;;;;;6186903;28;1588;-71
2023/07/08 06:42:31;;;;;;;;;;;22.40;70.30;;;;;;6180231;28;1522;-71
2023/07/08 06:45:32;;;;;;;;;;;22.50;70.30;;;;;;6180572;28;1978;-72
2023/07/08 06:48:35;;;;;;;;;;;22.60;70.00;;;;;;6199471;28;1481;-71
2023/07/08 06:51:37;;;;;;;;;;;22.60;69.30;;;;;;6198290;28;1421;-72
2023/07/08 06:54:39;;;;;;;;;;;22.60;69.00;;;;;;6198969;28;1473;-71
2023/07/08 06:57:41;;;;;;;;;;;22.60;69.00;;;;;;6187618;28;1728;-70
2023/07/08 07:00:43;;;;;;;;;;;22.60;69.30;;;;;;6194203;28;1087;-71
2023/07/08 07:03:46;;;;;;;;;;;22.70;68.90;;;;;;6179281;28;1269;-71
2023/07/08 07:06:48;;;;;;;;;;;22.80;68.90;;;;;;6184646;28;1914;-71
2023/07/08 07:09:49;;;;;;;;;;;22.90;68.50;;;;;;6203228;28;1058;-71
2023/07/08 07:12:51;;;;;;;;;;;22.90;67.90;;;;;;6190359;28;1417;-71
2023/07/08 07:15:52;;;;;;;;;;;23.00;68.20;;;;;;6173986;28;1425;-72
2023/07/08 07:18:56;;;;;;;;;;;23.10;68.40;;;;;;6178983;28;943;-72
2023/07/08 07:21:57;;;;;;;;;;;23.20;68.80;;;;;;6178015;28;1477;-72
2023/07/08 07:24:59;;;;;;;;;;;23.20;68.70;;;;;;6197232;28;1635;-73
2023/07/08 07:28:01;;;;;;;;;;;23.40;69.20;;;;;;6190928;28;2283;-71
2023/07/08 07:31:06;;;;;;;;;;;23.30;69.70;;;;;;6178598;28;2620;-72
2023/07/08 07:34:09;;;;;;;;;;;23.40;69.40;;;;;;6178581;28;1204;-72
2023/07/08 07:37:12;;;;;;;;;;;23.40;69.60;;;;;;6177658;28;2954;-71
2023/07/08 07:40:15;;;;;;;;;;;23.40;69.40;;;;;;6190416;28;1476;-72
2023/07/08 07:43:16;;;;;;;;;;;23.50;69.80;;;;;;6180788;28;1903;-71
2023/07/08 07:46:19;;;;;;;;;;;23.50;70.10;;;;;;6179832;28;1907;-71
2023/07/08 07:49:22;;;;;;;;;;;23.50;69.60;;;;;;6177502;28;1505;-71
2023/07/08 07:52:24;;;;;;;;;;;23.60;69.80;;;;;;6186050;28;1648;-71
2023/07/08 07:55:25;;;;;;;;;;;23.60;69.90;;;;;;6183432;28;2351;-71
2023/07/08 07:58:27;;;;;;;;;;;23.70;70.30;;;;;;6197668;28;1467;-71
2023/07/08 08:01:29;;;;;;;;;;;23.70;70.00;;;;;;6200578;28;1433;-71
2023/07/08 08:04:32;;;;;;;;;;;23.70;70.20;;;;;;6194015;28;1536;-72
2023/07/08 08:07:34;;;;;;;;;;;23.70;69.80;;;;;;6177990;28;1903;-72
2023/07/08 08:10:36;;;;;;;;;;;23.80;70.00;;;;;;6177704;28;1108;-72
2023/07/08 08:13:38;;;;;;;;;;;24.00;69.90;;;;;;6178132;28;1031;-73
2023/07/08 08:16:39;;;;;;;;;;;24.00;69.40;;;;;;6176411;28;1500;-72
2023/07/08 08:19:42;;;;;;;;;;;24.00;69.80;;;;;;6177515;28;2809;-72
2023/07/08 08:22:44;;;;;;;;;;;24.10;69.70;;;;;;6176496;28;2481;-73
2023/07/08 08:25:46;;;;;;;;;;;24.10;69.90;;;;;;6177453;28;1891;-72
2023/07/08 08:28:47;;;;;;;;;;;24.20;69.70;;;;;;6180382;28;2881;-75
2023/07/08 08:31:50;;;;;;;;;;;24.20;69.90;;;;;;6201473;28;1077;-72
2023/07/08 08:34:53;;;;;;;;;;;24.30;69.40;;;;;;6195394;28;2056;-71
2023/07/08 08:37:55;;;;;;;;;;;24.30;70.30;;;;;;6185495;28;1567;-72
2023/07/08 08:40:56;;;;;;;;;;;24.40;69.50;;;;;;6177167;28;1568;-72
2023/07/08 08:43:59;;;;;;;;;;;24.40;70.00;;;;;;6184595;28;1429;-71
2023/07/08 08:47:06;;;;;;;;;;;24.50;69.70;;;;;;6201226;28;1996;-77
2023/07/08 08:50:24;;;;;;;;;;;24.50;69.80;;;;;;6180968;28;1420;-72
2023/07/08 08:53:26;;;;;;;;;;;24.60;69.90;;;;;;6188281;28;1437;-71
2023/07/08 08:56:29;;;;;;;;;;;24.60;72.00;;;;;;6198332;28;1524;-71
2023/07/08 08:59:39;;;;;;;;;;;24.70;71.50;;;;;;6181760;28;2590;-71
2023/07/08 09:02:47;;;;;;;;;;;24.70;71.00;;;;;;6170386;28;2237;-73
2023/07/08 09:05:50;;;;;;;;;;;24.80;71.50;;;;;;6169014;28;1968;-76
2023/07/08 09:08:52;;;;;;;;;;;24.90;71.00;;;;;;6180714;28;1464;-70
2023/07/08 09:11:58;;;;;;;;;;;24.90;71.00;;;;;;6175276;28;1468;-77
2023/07/08 09:15:00;;;;;;;;;;;24.90;70.70;;;;;;6166836;28;2659;-78
2023/07/08 09:18:14;;;;;;;;;;;24.90;69.80;;;;;;6172752;28;2017;-76
2023/07/08 09:21:23;;;;;;;;;;;25.00;68.70;;;;;;6172542;28;1710;-78
2023/07/08 09:24:30;;;;;;;;;;;24.90;67.50;;;;;;6178858;28;1902;-76
2023/07/08 09:27:32;;;;;;;;;;;25.00;68.20;;;;;;6175942;28;1903;-76
2023/07/08 09:30:33;;;;;;;;;;;25.10;68.30;;;;;;6176023;28;2677;-77
2023/07/08 09:33:39;;;;;;;;;;;25.10;68.00;;;;;;6179638;28;1671;-78
2023/07/08 09:36:44;;;;;;;;;;;25.20;67.90;;;;;;6191640;28;1682;-78
2023/07/08 09:39:46;;;;;;;;;;;25.20;67.60;;;;;;6198781;28;1695;-77
2023/07/08 09:42:50;;;;;;;;;;;25.10;66.50;;;;;;6194720;28;1508;-78
2023/07/08 09:45:52;;;;;;;;;;;25.30;67.60;;;;;;6185930;28;1819;-72
2023/07/08 09:48:54;;;;;;;;;;;25.30;67.40;;;;;;6193091;28;1985;-78
2023/07/08 09:51:57;;;;;;;;;;;25.30;66.80;;;;;;6200433;28;978;-77
2023/07/08 09:54:59;;;;;;;;;;;25.40;67.40;;;;;;6189432;28;1532;-77
2023/07/08 09:58:01;;;;;;;;;;;25.50;66.70;;;;;;6197939;28;1528;-78
2023/07/08 10:01:11;;;;;;;;;;;25.60;66.60;;;;;;6199702;28;1156;-77
2023/07/08 10:04:13;;;;;;;;;;;25.50;67.20;;;;;;6194140;28;1579;-76
2023/07/08 10:07:18;;;;;;;;;;;25.60;67.30;;;;;;6175865;28;1899;-76
2023/07/08 10:10:24;;;;;;;;;;;25.60;67.40;;;;;;6194382;28;1504;-76
2023/07/08 10:13:30;;;;;;;;;;;25.60;66.40;;;;;;6193660;28;2629;-77
2023/07/08 10:16:33;;;;;;;;;;;25.70;66.50;;;;;;6189217;28;3205;-77
2023/07/08 10:19:35;;;;;;;;;;;25.80;66.30;;;;;;6168434;28;2788;-78
2023/07/08 10:22:43;;;;;;;;;;;25.90;66.30;;;;;;6183510;28;2162;-77
2023/07/08 10:25:49;;;;;;;;;;;26.00;66.00;;;;;;6179851;28;1097;-75
2023/07/08 10:29:02;;;;;;;;;;;26.00;64.00;;;;;;6194653;28;1902;-79
2023/07/08 10:32:09;;;;;;;;;;;26.00;63.20;;;;;;6185304;28;1433;-78
2023/07/08 10:35:17;;;;;;;;;;;26.10;63.40;;;;;;6175432;28;1043;-76
2023/07/08 10:38:36;;;;;;;;;;;26.10;63.30;;;;;;6156049;29;1552;-74
2023/07/08 10:41:46;;;;;;;;;;;26.30;63.60;;;;;;6156005;29;1043;-75
2023/07/08 10:44:57;;;;;;;;;;;26.40;64.90;;;;;;6160099;28;1410;-76
2023/07/08 10:48:10;;;;;;;;;;;26.60;64.40;;;;;;6204089;28;1944;-75
2023/07/08 10:51:18;;;;;;;;;;;26.50;63.70;;;;;;6188563;28;1547;-78
2023/07/08 10:54:53;;;;;;;;;;;26.50;64.30;;;;;;6179838;28;1026;-76
2023/07/08 10:58:05;;;;;;;;;;;26.50;63.80;;;;;;6177096;28;1111;-77
2023/07/08 11:01:14;;;;;;;;;;;26.70;64.40;;;;;;6179070;28;1212;-78
2023/07/08 11:04:26;;;;;;;;;;;26.90;63.90;;;;;;6179285;28;1104;-78
2023/07/08 11:07:37;;;;;;;;;;;26.80;64.20;;;;;;6179228;28;2021;-77
2023/07/08 11:10:47;;;;;;;;;;;26.80;64.60;;;;;;6179256;28;965;-77
2023/07/08 11:13:51;;;;;;;;;;;26.80;63.90;;;;;;6178863;28;1093;-78
2023/07/08 11:16:59;;;;;;;;;;;26.80;63.20;;;;;;6179090;28;1038;-77
2023/07/08 11:20:03;;;;;;;;;;;27.00;63.00;;;;;;6178826;28;1015;-77
2023/07/08 11:23:17;;;;;;;;;;;27.10;64.00;;;;;;6178830;28;1056;-77
2023/07/08 11:26:25;;;;;;;;;;;27.30;64.70;;;;;;6178719;28;1068;-76
2023/07/08 11:29:42;;;;;;;;;;;27.30;63.70;;;;;;6178828;28;1906;-76
2023/07/08 11:32:45;;;;;;;;;;;27.50;63.40;;;;;;6178603;28;1041;-77
2023/07/08 11:35:48;;;;;;;;;;;27.60;62.20;;;;;;6177396;28;1111;-77
2023/07/08 11:38:51;;;;;;;;;;;27.70;62.40;;;;;;6178584;28;1051;-78
2023/07/08 11:42:05;;;;;;;;;;;27.70;61.60;;;;;;6178560;28;1055;-78
2023/07/08 11:45:10;;;;;;;;;;;27.80;61.10;;;;;;6178007;28;1092;-76
2023/07/08 11:48:14;;;;;;;;;;;27.80;60.40;;;;;;6178094;28;1988;-77
2023/07/08 11:51:20;;;;;;;;;;;27.80;59.60;;;;;;6178000;28;1041;-76
2023/07/08 11:54:29;;;;;;;;;;;27.80;59.50;;;;;;6178246;28;1063;-78
2023/07/08 11:57:37;;;;;;;;;;;27.80;59.70;;;;;;6177806;28;1072;-77
2023/07/08 12:00:41;;;;;;;;;;;27.90;59.10;;;;;;6177769;28;1965;-76
2023/07/08 12:03:48;;;;;;;;;;;28.00;59.60;;;;;;6177883;28;1035;-77
2023/07/08 12:07:03;;;;;;;;;;;28.20;58.80;;;;;;6177596;28;1894;-78
2023/07/08 12:10:07;;;;;;;;;;;28.30;58.40;;;;;;6177581;28;1235;-78
2023/07/08 12:13:13;;;;;;;;;;;28.40;58.60;;;;;;6177667;28;1076;-76
2023/07/08 12:16:15;;;;;;;;;;;28.40;58.80;;;;;;6177606;28;1035;-77
2023/07/08 12:19:19;;;;;;;;;;;28.50;58.50;;;;;;6177579;28;1038;-77
2023/07/08 12:22:21;;;;;;;;;;;28.50;58.60;;;;;;6177269;28;1023;-77
2023/07/08 12:25:27;;;;;;;;;;;28.80;59.10;;;;;;6177457;28;1258;-78
2023/07/08 12:28:30;;;;;;;;;;;29.00;57.40;;;;;;6165856;28;2618;-78
2023/07/08 12:31:32;;;;;;;;;;;29.10;57.00;;;;;;6153382;29;1165;-76
2023/07/08 12:34:34;;;;;;;;;;;29.30;57.40;;;;;;6153255;29;1002;-78
2023/07/08 12:37:36;;;;;;;;;;;29.40;56.50;;;;;;6152868;29;970;-78
2023/07/08 12:40:37;;;;;;;;;;;29.50;56.20;;;;;;6153042;29;1047;-78
2023/07/08 12:43:40;;;;;;;;;;;29.60;56.80;;;;;;6152933;29;1094;-77
2023/07/08 12:46:42;;;;;;;;;;;29.80;56.50;;;;;;6153021;28;1046;-77
2023/07/08 12:49:44;;;;;;;;;;;29.90;56.50;;;;;;6152664;28;1975;-78
2023/07/08 12:52:46;;;;;;;;;;;30.00;55.90;;;;;;6152874;29;1042;-78
2023/07/08 12:55:51;;;;;;;;;;;30.20;56.20;;;;;;6152864;29;2036;-77
2023/07/08 12:58:57;;;;;;;;;;;30.30;55.60;;;;;;6152729;29;1109;-78
2023/07/08 13:01:59;;;;;;;;;;;30.50;55.40;;;;;;6152401;29;1276;-76
2023/07/08 13:05:03;;;;;;;;;;;30.60;54.50;;;;;;6152640;29;1047;-78
2023/07/08 13:08:05;;;;;;;;;;;30.90;54.50;;;;;;6152633;29;1971;-78
2023/07/08 13:11:07;;;;;;;;;;;31.00;54.00;;;;;;6152350;29;1291;-78
2023/07/08 13:14:10;;;;;;;;;;;31.30;53.90;;;;;;6152509;28;1064;-77
2023/07/08 13:17:14;;;;;;;;;;;31.40;53.50;;;;;;6152252;29;1053;-78
2023/07/08 13:20:16;;;;;;;;;;;31.60;53.40;;;;;;6152367;29;1045;-77
2023/07/08 13:23:19;;;;;;;;;;;31.40;53.00;;;;;;6152362;29;1011;-77
2023/07/08 13:26:22;;;;;;;;;;;31.30;53.50;;;;;;6152437;29;1059;-78
2023/07/08 13:29:26;;;;;;;;;;;31.40;53.80;;;;;;6152352;29;1903;-78
2023/07/08 13:32:31;;;;;;;;;;;31.30;52.50;;;;;;6152379;29;1192;-77
2023/07/08 13:35:37;;;;;;;;;;;31.30;52.60;;;;;;6152322;29;1065;-77
2023/07/08 13:38:39;;;;;;;;;;;31.20;53.20;;;;;;6152053;29;1142;-76
2023/07/08 13:41:43;;;;;;;;;;;31.10;53.60;;;;;;6151977;29;1067;-78
2023/07/08 13:44:47;;;;;;;;;;;30.90;53.40;;;;;;6152042;29;1142;-76
2023/07/08 13:47:59;;;;;;;;;;;30.90;53.60;;;;;;6151879;29;2012;-76
2023/07/08 13:51:04;;;;;;;;;;;31.20;53.60;;;;;;6152174;28;1061;-77
2023/07/08 13:54:14;;;;;;;;;;;31.60;53.80;;;;;;6151895;29;1100;-77
2023/07/08 13:57:18;;;;;;;;;;;31.60;52.90;;;;;;6152629;28;1949;-77
2023/07/08 14:00:21;;;;;;;;;;;31.30;52.30;;;;;;6156518;29;1104;-78
2023/07/08 14:03:23;;;;;;;;;;;31.20;52.50;;;;;;6156733;29;1014;-77
2023/07/08 14:06:26;;;;;;;;;;;31.20;52.80;;;;;;6156289;29;1087;-78
2023/07/08 14:09:28;;;;;;;;;;;31.20;51.50;;;;;;6156511;29;1906;-77
2023/07/08 14:12:29;;;;;;;;;;;31.50;50.80;;;;;;6156394;29;1037;-77
2023/07/08 14:15:32;;;;;;;;;;;31.80;51.40;;;;;;6156195;29;1129;-77
2023/07/08 14:18:34;;;;;;;;;;;32.20;52.00;;;;;;6156287;29;1053;-78
2023/07/08 14:21:36;;;;;;;;;;;32.40;51.50;;;;;;6156080;29;1022;-78
2023/07/08 14:24:38;;;;;;;;;;;32.80;51.70;;;;;;6156140;29;1096;-78
2023/07/08 14:27:39;;;;;;;;;;;32.70;51.50;;;;;;6155962;28;3046;-76
2023/07/08 14:30:45;;;;;;;;;;;32.80;49.70;;;;;;6156210;29;1054;-76
2023/07/08 14:33:46;;;;;;;;;;;32.90;49.40;;;;;;6155807;29;1120;-76
2023/07/08 14:36:48;;;;;;;;;;;32.80;49.60;;;;;;6155965;29;1033;-77
2023/07/08 14:39:50;;;;;;;;;;;32.70;49.80;;;;;;6155747;29;1106;-78
2023/07/08 14:42:57;;;;;;;;;;;32.40;49.00;;;;;;6155852;29;1033;-76
2023/07/08 14:46:02;;;;;;;;;;;32.20;49.40;;;;;;6155754;29;1098;-77
2023/07/08 14:49:12;;;;;;;;;;;32.20;49.30;;;;;;6155488;29;1918;-77
2023/07/08 14:52:14;;;;;;;;;;;32.20;49.10;;;;;;6155635;29;990;-78
2023/07/08 14:55:16;;;;;;;;;;;32.20;49.50;;;;;;6174402;28;1859;-77
2023/07/08 14:58:22;;;;;;;;;;;32.20;49.90;;;;;;6190413;28;1475;-77
2023/07/08 15:01:29;;;;;;;;;;;32.10;49.80;;;;;;6198569;28;1400;-76
2023/07/08 15:04:31;;;;;;;;;;;32.20;49.20;;;;;;6202674;28;1036;-78
2023/07/08 15:07:33;;;;;;;;;;;32.10;48.60;;;;;;6197528;28;1899;-77
2023/07/08 15:10:35;;;;;;;;;;;32.30;49.80;;;;;;6203075;28;1155;-77
2023/07/08 15:13:37;;;;;;;;;;;32.80;50.50;;;;;;6183460;28;1710;-77
2023/07/08 15:16:40;;;;;;;;;;;33.20;50.70;;;;;;6178855;28;1099;-77
2023/07/08 15:19:42;;;;;;;;;;;33.60;49.50;;;;;;6190699;28;1479;-78
2023/07/08 15:22:44;;;;;;;;;;;33.80;49.00;;;;;;6202124;28;1410;-78
2023/07/08 15:25:46;;;;;;;;;;;34.10;49.20;;;;;;6188473;28;1448;-78
2023/07/08 15:28:50;;;;;;;;;;;34.40;48.70;;;;;;6202807;28;1898;-78
2023/07/08 15:31:53;;;;;;;;;;;34.40;48.00;;;;;;6202620;28;1004;-78
2023/07/08 15:34:55;;;;;;;;;;;34.40;47.10;;;;;;6185959;28;1428;-78
2023/07/08 15:37:59;;;;;;;;;;;34.10;46.80;;;;;;6151383;29;1104;-78
2023/07/08 15:41:00;;;;;;;;;;;34.10;47.10;;;;;;6151244;29;1094;-77
2023/07/08 15:44:02;;;;;;;;;;;34.50;48.20;;;;;;6161162;28;1428;-77
2023/07/08 15:47:07;;;;;;;;;;;34.40;48.20;;;;;;6173534;28;1384;-76
2023/07/08 15:50:13;;;;;;;;;;;34.40;46.80;;;;;;6175061;28;1981;-77
2023/07/08 15:53:15;;;;;;;;;;;34.80;47.10;;;;;;6172849;28;1080;-77
2023/07/08 15:56:20;;;;;;;;;;;34.90;47.10;;;;;;6191626;28;1467;-77
2023/07/08 15:59:25;;;;;;;;;;;35.30;46.80;;;;;;6183980;28;1392;-77
2023/07/08 16:02:29;;;;;;;;;;;35.70;46.30;;;;;;6175009;28;1336;-78
2023/07/08 16:05:33;;;;;;;;;;;36.00;45.60;;;;;;6173811;28;1457;-78
2023/07/08 16:08:35;;;;;;;;;;;36.10;45.10;;;;;;6173116;28;1906;-78
2023/07/08 16:11:37;;;;;;;;;;;36.40;45.10;;;;;;6174209;28;1122;-77
2023/07/08 16:14:39;;;;;;;;;;;36.50;44.10;;;;;;6172935;28;1391;-77
2023/07/08 16:17:42;;;;;;;;;;;36.40;45.70;;;;;;6181738;28;1486;-76
2023/07/08 16:20:44;;;;;;;;;;;36.10;45.00;;;;;;6170122;28;3085;-76
2023/07/08 16:23:46;;;;;;;;;;;36.10;44.90;;;;;;6173713;28;1240;-76
2023/07/08 16:26:48;;;;;;;;;;;35.90;44.60;;;;;;6173423;28;2500;-76
2023/07/08 16:29:50;;;;;;;;;;;35.90;44.90;;;;;;6186298;28;3143;-77
2023/07/08 16:32:53;;;;;;;;;;;35.70;44.70;;;;;;6175661;28;3397;-77
2023/07/08 16:35:55;;;;;;;;;;;35.60;45.00;;;;;;6173139;28;2204;-78
2023/07/08 16:38:56;;;;;;;;;;;35.50;44.80;;;;;;6176949;28;1577;-77
2023/07/08 16:41:58;;;;;;;;;;;35.30;45.40;;;;;;6173676;28;1131;-77
2023/07/08 16:45:00;;;;;;;;;;;35.20;46.00;;;;;;6173601;28;1035;-77
2023/07/08 16:48:03;;;;;;;;;;;34.90;45.50;;;;;;6172235;28;2185;-77
2023/07/08 16:51:05;;;;;;;;;;;34.30;45.50;;;;;;6193028;28;1669;-76
2023/07/08 16:54:11;;;;;;;;;;;34.40;46.40;;;;;;6193413;28;1557;-77
2023/07/08 16:57:13;;;;;;;;;;;34.60;46.40;;;;;;6197963;28;1354;-77
2023/07/08 17:00:20;;;;;;;;;;;34.50;46.60;;;;;;6187438;28;1616;-76
2023/07/08 17:03:23;;;;;;;;;;;34.60;46.20;;;;;;6195514;28;1561;-78
2023/07/08 17:06:25;;;;;;;;;;;34.60;46.20;;;;;;6173152;28;2065;-77
2023/07/08 17:09:27;;;;;;;;;;;34.60;46.00;;;;;;6171931;28;1977;-78
2023/07/08 17:12:28;;;;;;;;;;;34.50;46.00;;;;;;6172769;28;1037;-77
2023/07/08 17:15:31;;;;;;;;;;;34.60;46.40;;;;;;6173255;28;1017;-78
2023/07/08 17:18:34;;;;;;;;;;;34.40;46.10;;;;;;6173557;28;1050;-79
2023/07/08 17:21:36;;;;;;;;;;;34.50;46.20;;;;;;6174071;28;1653;-78
2023/07/08 17:24:37;;;;;;;;;;;34.80;46.30;;;;;;6196908;28;1064;-77
2023/07/08 17:27:39;;;;;;;;;;;34.80;46.50;;;;;;6197297;28;1034;-76
2023/07/08 17:30:42;;;;;;;;;;;34.90;46.50;;;;;;6190782;28;1902;-79
2023/07/08 17:33:52;;;;;;;;;;;34.80;46.50;;;;;;6200834;28;1027;-76
2023/07/08 17:36:54;;;;;;;;;;;34.70;46.60;;;;;;6154072;29;1076;-77
2023/07/08 17:39:56;;;;;;;;;;;34.40;46.70;;;;;;6162628;28;1379;-76
2023/07/08 17:42:57;;;;;;;;;;;34.30;47.10;;;;;;6179750;28;1573;-77
2023/07/08 17:45:59;;;;;;;;;;;34.00;47.30;;;;;;6181131;28;3123;-79
2023/07/08 17:49:03;;;;;;;;;;;33.70;47.30;;;;;;6197913;28;1948;-77
2023/07/08 17:52:05;;;;;;;;;;;33.60;47.80;;;;;;6182705;28;2332;-77
2023/07/08 17:55:07;;;;;;;;;;;33.40;47.90;;;;;;6198828;28;1726;-77
2023/07/08 17:58:12;;;;;;;;;;;33.30;48.40;;;;;;6201536;28;1093;-78
2023/07/08 18:01:13;;;;;;;;;;;33.10;48.70;;;;;;6195816;28;1569;-76
2023/07/08 18:04:17;;;;;;;;;;;33.20;48.80;;;;;;6179651;28;2228;-78
2023/07/08 18:07:19;;;;;;;;;;;33.30;48.90;;;;;;6197031;28;1679;-77
2023/07/08 18:10:22;;;;;;;;;;;33.30;48.90;;;;;;6182604;28;1994;-81
2023/07/08 18:13:26;;;;;;;;;;;33.40;48.90;;;;;;6196921;28;1873;-83
2023/07/08 18:16:28;;;;;;;;;;;33.60;49.10;;;;;;6200925;28;1188;-78
2023/07/08 18:19:31;;;;;;;;;;;33.60;48.90;;;;;;6178372;28;1578;-78
2023/07/08 18:22:33;;;;;;;;;;;33.50;48.80;;;;;;6178415;28;1704;-78
2023/07/08 18:25:35;;;;;;;;;;;33.50;49.40;;;;;;6190272;28;1565;-77
2023/07/08 18:28:37;;;;;;;;;;;33.40;49.30;;;;;;6173899;28;1902;-78
2023/07/08 18:31:40;;;;;;;;;;;33.40;49.70;;;;;;6173087;28;1767;-77
2023/07/08 18:34:43;;;;;;;;;;;33.10;49.70;;;;;;6198142;28;1135;-78
2023/07/08 18:37:45;;;;;;;;;;;32.90;49.80;;;;;;6195920;28;1102;-79
2023/07/08 18:40:47;;;;;;;;;;;32.90;50.60;;;;;;6197788;28;1050;-79
2023/07/08 18:43:49;;;;;;;;;;;33.00;50.90;;;;;;6190610;28;1584;-80
2023/07/08 18:46:51;;;;;;;;;;;33.00;51.10;;;;;;6197767;28;1118;-78
2023/07/08 18:49:54;;;;;;;;;;;32.90;51.20;;;;;;6197792;28;1975;-78
2023/07/08 18:52:56;;;;;;;;;;;32.80;51.50;;;;;;6187697;28;1743;-78
2023/07/08 18:55:57;;;;;;;;;;;32.70;51.50;;;;;;6194850;28;1684;-76
2023/07/08 18:58:59;;;;;;;;;;;32.50;51.80;;;;;;6197241;28;1062;-76
2023/07/08 19:02:02;;;;;;;;;;;32.40;52.30;;;;;;6188527;28;1615;-77
2023/07/08 19:05:06;;;;;;;;;;;32.30;52.30;;;;;;6173239;28;1166;-81
2023/07/08 19:08:08;;;;;;;;;;;32.00;52.40;;;;;;6172541;28;1582;-80
2023/07/08 19:11:17;;;;;;;;;;;31.80;52.70;;;;;;6178394;28;1903;-79
2023/07/08 19:14:19;;;;;;;;;;;31.70;53.10;;;;;;6149167;29;1090;-80
2023/07/08 19:17:20;;;;;;;;;;;31.50;53.40;;;;;;6148845;29;1206;-80
2023/07/08 19:20:27;;;;;;;;;;;31.10;53.50;;;;;;6148930;29;1052;-81
2023/07/08 19:23:28;;;;;;;;;;;30.90;54.00;;;;;;6178289;28;1626;-73
2023/07/08 19:26:30;;;;;;;;;;;30.70;54.70;;;;;;6192262;28;1588;-75
2023/07/08 19:29:32;;;;;;;;;;;30.80;55.30;;;;;;6194935;28;1985;-77
2023/07/08 19:32:33;;;;;;;;;;;30.60;54.60;;;;;;6188519;28;1704;-78
2023/07/08 19:35:42;;;;;;;;;;;30.60;55.10;;;;;;6172412;28;1274;-75
2023/07/08 19:38:44;;;;;;;;;;;30.30;55.00;;;;;;6169607;28;1573;-75
2023/07/08 19:41:45;;;;;;;;;;;30.20;55.20;;;;;;6174420;28;1332;-78
2023/07/08 19:44:47;;;;;;;;;;;30.00;55.40;;;;;;6196251;28;2088;-78
2023/07/08 19:47:49;;;;;;;;;;;29.90;55.20;;;;;;6195808;28;1103;-71
2023/07/08 19:50:52;;;;;;;;;;;29.90;56.10;;;;;;6165567;28;1934;-73
2023/07/08 19:53:54;;;;;;;;;;;29.80;56.40;;;;;;6173473;28;1377;-70
2023/07/08 19:56:56;;;;;;;;;;;29.70;57.00;;;;;;6198013;28;1046;-70
2023/07/08 19:59:57;;;;;;;;;;;29.40;57.30;;;;;;6196548;28;1660;-70
2023/07/08 20:02:59;;;;;;;;;;;29.20;57.40;;;;;;6168803;28;2579;-69
2023/07/08 20:06:11;;;;;;;;;;;29.10;59.10;;;;;;6174857;28;1042;-69
2023/07/08 20:09:13;;;;;;;;;;;29.00;58.10;;;;;;6174526;28;1902;-70
2023/07/08 20:12:15;;;;;;;;;;;29.00;58.20;;;;;;6181377;28;1424;-70
2023/07/08 20:15:16;;;;;;;;;;;29.10;58.40;;;;;;6198647;28;1125;-70
2023/07/08 20:18:23;;;;;;;;;;;29.00;58.00;;;;;;6198675;28;1110;-70
2023/07/08 20:21:26;;;;;;;;;;;28.80;58.20;;;;;;6194976;28;1432;-70
2023/07/08 20:24:28;;;;;;;;;;;28.70;58.40;;;;;;6196945;28;1424;-69
2023/07/08 20:27:30;;;;;;;;;;;28.50;58.10;;;;;;6185145;28;1440;-70
2023/07/08 20:30:31;;;;;;;;;;;28.50;58.40;;;;;;6174137;28;1899;-69
2023/07/08 20:33:33;;;;;;;;;;;28.50;58.60;;;;;;6173860;28;1156;-71
2023/07/08 20:36:36;;;;;;;;;;;28.20;58.10;;;;;;6172508;28;1424;-69
2023/07/08 20:39:38;;;;;;;;;;;28.10;58.80;;;;;;6198067;28;1167;-69
2023/07/08 20:42:42;;;;;;;;;;;28.20;59.10;;;;;;6195755;28;1349;-70
2023/07/08 20:45:48;;;;;;;;;;;28.20;59.20;;;;;;6198014;28;1055;-69
2023/07/08 20:48:51;;;;;;;;;;;28.20;59.30;;;;;;6195011;28;1380;-69
2023/07/08 20:51:54;;;;;;;;;;;28.10;59.70;;;;;;6188649;28;1903;-70
2023/07/08 20:54:56;;;;;;;;;;;28.00;63.20;;;;;;6186434;28;1407;-70
2023/07/08 20:57:57;;;;;;;;;;;27.20;65.50;;;;;;6196568;28;1402;-68
2023/07/08 21:00:59;;;;;;;;;;;27.20;67.20;;;;;;6197218;28;1218;-70
2023/07/08 21:04:01;;;;;;;;;;;27.30;66.20;;;;;;6197917;28;1099;-70
2023/07/08 21:07:04;;;;;;;;;;;27.40;66.00;;;;;;6194885;28;1408;-69
2023/07/08 21:10:06;;;;;;;;;;;27.40;65.60;;;;;;6196383;28;1914;-69
2023/07/08 21:13:09;;;;;;;;;;;27.40;65.80;;;;;;6197469;28;975;-70
2023/07/08 21:16:13;;;;;;;;;;;27.30;67.40;;;;;;6196052;28;1444;-69
2023/07/08 21:19:15;;;;;;;;;;;27.30;65.50;;;;;;6179575;28;1475;-69
2023/07/08 21:22:18;;;;;;;;;;;27.10;67.40;;;;;;6198097;28;1098;-69
2023/07/08 21:25:19;;;;;;;;;;;26.60;67.60;;;;;;6197487;28;1117;-69
2023/07/08 21:28:25;;;;;;;;;;;26.40;68.30;;;;;;6194981;28;1365;-70
